Terminal Aerodrome Forecast
Issued by NWS Jacksonville, FL

Home | Current Version | Previous Version | Text Only | Print | Product List | Glossary On
Versions: 1 2 3 4 5 6 7 8 9 10 11 12 13 14 15 16
536
FTUS42 KJAX 281815 AAA
TAFSSI
TAF AMD
KSSI 281815Z 2818/2918 15010KT P6SM SCT050 SCT250
     FM290100 20009KT P6SM FEW050 SCT250=

USA.gov is the U.S. government's official web portal to all federal, state and local government web resources and services.